sensor_id;sensor_type;location;lat;lon;timestamp;P1;durP1;ratioP1;P2;durP2;ratioP2
66751;SDS011;53663;42.676;23.238;2024-03-22T00:01:41;15.13;;;5.82;;
66751;SDS011;53663;42.676;23.238;2024-03-22T00:04:06;16.17;;;5.75;;
66751;SDS011;53663;42.676;23.238;2024-03-22T00:06:32;14.63;;;6.22;;
66751;SDS011;53663;42.676;23.238;2024-03-22T00:08:57;15.65;;;7.00;;
66751;SDS011;53663;42.676;23.238;2024-03-22T00:11:23;16.85;;;7.63;;
66751;SDS011;53663;42.676;23.238;2024-03-22T00:13:48;19.33;;;7.55;;
66751;SDS011;53663;42.676;23.238;2024-03-22T00:16:14;18.35;;;8.07;;
66751;SDS011;53663;42.676;23.238;2024-03-22T00:18:39;18.48;;;7.35;;
66751;SDS011;53663;42.676;23.238;2024-03-22T00:21:04;16.00;;;6.95;;
66751;SDS011;53663;42.676;23.238;2024-03-22T00:23:30;18.20;;;8.13;;
66751;SDS011;53663;42.676;23.238;2024-03-22T00:25:56;20.33;;;8.25;;
66751;SDS011;53663;42.676;23.238;2024-03-22T00:28:21;17.80;;;8.07;;
66751;SDS011;53663;42.676;23.238;2024-03-22T00:30:47;33.13;;;8.27;;
66751;SDS011;53663;42.676;23.238;2024-03-22T00:33:12;17.52;;;7.80;;
66751;SDS011;53663;42.676;23.238;2024-03-22T00:35:38;17.63;;;8.02;;
66751;SDS011;53663;42.676;23.238;2024-03-22T00:38:03;23.90;;;6.78;;
66751;SDS011;53663;42.676;23.238;2024-03-22T00:40:29;14.40;;;6.93;;
66751;SDS011;53663;42.676;23.238;2024-03-22T00:42:54;17.30;;;6.88;;
66751;SDS011;53663;42.676;23.238;2024-03-22T00:45:20;18.58;;;7.82;;
66751;SDS011;53663;42.676;23.238;2024-03-22T00:47:45;20.35;;;8.85;;
66751;SDS011;53663;42.676;23.238;2024-03-22T00:50:11;24.00;;;8.50;;
66751;SDS011;53663;42.676;23.238;2024-03-22T00:52:37;25.85;;;9.32;;
66751;SDS011;53663;42.676;23.238;2024-03-22T00:55:03;22.15;;;9.77;;
66751;SDS011;53663;42.676;23.238;2024-03-22T00:57:30;26.77;;;10.85;;
66751;SDS011;53663;42.676;23.238;2024-03-22T00:59:56;27.02;;;10.27;;
66751;SDS011;53663;42.676;23.238;2024-03-22T01:02:21;27.02;;;9.63;;
66751;SDS011;53663;42.676;23.238;2024-03-22T01:04:48;19.70;;;9.30;;
66751;SDS011;53663;42.676;23.238;2024-03-22T01:07:13;20.40;;;8.50;;
66751;SDS011;53663;42.676;23.238;2024-03-22T01:09:39;22.10;;;8.40;;
66751;SDS011;53663;42.676;23.238;2024-03-22T01:12:04;24.90;;;9.15;;
66751;SDS011;53663;42.676;23.238;2024-03-22T01:14:30;29.92;;;9.23;;
66751;SDS011;53663;42.676;23.238;2024-03-22T01:16:56;22.42;;;9.20;;
66751;SDS011;53663;42.676;23.238;2024-03-22T01:19:22;21.08;;;8.80;;
66751;SDS011;53663;42.676;23.238;2024-03-22T01:21:48;19.58;;;9.15;;
66751;SDS011;53663;42.676;23.238;2024-03-22T01:24:14;17.27;;;8.20;;
66751;SDS011;53663;42.676;23.238;2024-03-22T01:26:40;21.98;;;8.90;;
66751;SDS011;53663;42.676;23.238;2024-03-22T01:29:05;24.45;;;9.35;;
66751;SDS011;53663;42.676;23.238;2024-03-22T01:31:31;21.75;;;8.70;;
66751;SDS011;53663;42.676;23.238;2024-03-22T01:33:56;19.42;;;8.95;;
66751;SDS011;53663;42.676;23.238;2024-03-22T01:36:22;18.88;;;8.68;;
66751;SDS011;53663;42.676;23.238;2024-03-22T01:38:47;21.70;;;8.45;;
66751;SDS011;53663;42.676;23.238;2024-03-22T01:41:13;18.10;;;8.02;;
66751;SDS011;53663;42.676;23.238;2024-03-22T01:43:38;17.80;;;8.20;;
66751;SDS011;53663;42.676;23.238;2024-03-22T01:46:04;20.80;;;7.60;;
66751;SDS011;53663;42.676;23.238;2024-03-22T01:48:33;17.70;;;7.45;;
66751;SDS011;53663;42.676;23.238;2024-03-22T01:50:59;14.35;;;7.72;;
66751;SDS011;53663;42.676;23.238;2024-03-22T01:53:25;13.95;;;7.85;;
66751;SDS011;53663;42.676;23.238;2024-03-22T01:55:51;18.73;;;6.93;;
66751;SDS011;53663;42.676;23.238;2024-03-22T01:58:16;12.85;;;7.10;;
66751;SDS011;53663;42.676;23.238;2024-03-22T02:00:43;16.92;;;7.75;;
66751;SDS011;53663;42.676;23.238;2024-03-22T02:03:08;20.73;;;7.30;;
66751;SDS011;53663;42.676;23.238;2024-03-22T02:05:34;15.20;;;7.18;;
66751;SDS011;53663;42.676;23.238;2024-03-22T02:07:59;14.35;;;7.55;;
66751;SDS011;53663;42.676;23.238;2024-03-22T02:10:25;14.15;;;7.13;;
66751;SDS011;53663;42.676;23.238;2024-03-22T02:12:50;14.02;;;7.22;;
66751;SDS011;53663;42.676;23.238;2024-03-22T02:15:16;20.08;;;7.40;;
66751;SDS011;53663;42.676;23.238;2024-03-22T02:17:42;14.63;;;6.35;;
66751;SDS011;53663;42.676;23.238;2024-03-22T02:20:07;15.75;;;7.20;;
66751;SDS011;53663;42.676;23.238;2024-03-22T02:22:33;15.98;;;6.03;;
66751;SDS011;53663;42.676;23.238;2024-03-22T02:24:58;14.23;;;6.15;;
66751;SDS011;53663;42.676;23.238;2024-03-22T02:27:24;13.25;;;6.28;;
66751;SDS011;53663;42.676;23.238;2024-03-22T02:29:50;13.98;;;6.72;;
66751;SDS011;53663;42.676;23.238;2024-03-22T02:32:16;14.40;;;6.35;;
66751;SDS011;53663;42.676;23.238;2024-03-22T02:34:41;13.00;;;6.85;;
66751;SDS011;53663;42.676;23.238;2024-03-22T02:37:07;15.25;;;6.78;;
66751;SDS011;53663;42.676;23.238;2024-03-22T02:39:32;14.00;;;6.43;;
66751;SDS011;53663;42.676;23.238;2024-03-22T02:41:58;11.80;;;6.43;;
66751;SDS011;53663;42.676;23.238;2024-03-22T02:44:23;13.25;;;6.40;;
66751;SDS011;53663;42.676;23.238;2024-03-22T02:46:49;15.20;;;6.05;;
66751;SDS011;53663;42.676;23.238;2024-03-22T02:49:15;11.43;;;6.00;;
66751;SDS011;53663;42.676;23.238;2024-03-22T02:51:40;13.20;;;5.85;;
66751;SDS011;53663;42.676;23.238;2024-03-22T02:54:06;15.48;;;6.40;;
66751;SDS011;53663;42.676;23.238;2024-03-22T02:56:31;12.30;;;5.95;;
66751;SDS011;53663;42.676;23.238;2024-03-22T02:58:57;9.52;;;5.60;;
66751;SDS011;53663;42.676;23.238;2024-03-22T03:01:22;15.65;;;5.80;;
66751;SDS011;53663;42.676;23.238;2024-03-22T03:03:48;14.35;;;5.32;;
66751;SDS011;53663;42.676;23.238;2024-03-22T03:06:13;10.80;;;5.10;;
66751;SDS011;53663;42.676;23.238;2024-03-22T03:08:40;9.75;;;5.05;;
66751;SDS011;53663;42.676;23.238;2024-03-22T03:11:05;17.80;;;5.07;;
66751;SDS011;53663;42.676;23.238;2024-03-22T03:13:31;13.52;;;5.38;;
66751;SDS011;53663;42.676;23.238;2024-03-22T03:15:57;10.85;;;5.28;;
66751;SDS011;53663;42.676;23.238;2024-03-22T03:18:22;13.45;;;5.47;;
66751;SDS011;53663;42.676;23.238;2024-03-22T03:20:48;14.30;;;6.03;;
66751;SDS011;53663;42.676;23.238;2024-03-22T03:23:14;15.88;;;5.85;;
66751;SDS011;53663;42.676;23.238;2024-03-22T03:25:39;11.43;;;5.78;;
66751;SDS011;53663;42.676;23.238;2024-03-22T03:28:05;16.33;;;6.32;;
66751;SDS011;53663;42.676;23.238;2024-03-22T03:30:32;12.18;;;5.43;;
66751;SDS011;53663;42.676;23.238;2024-03-22T03:32:59;18.13;;;6.03;;
66751;SDS011;53663;42.676;23.238;2024-03-22T03:35:24;10.82;;;6.13;;
66751;SDS011;53663;42.676;23.238;2024-03-22T03:37:51;14.77;;;6.53;;
66751;SDS011;53663;42.676;23.238;2024-03-22T03:40:16;16.40;;;6.35;;
66751;SDS011;53663;42.676;23.238;2024-03-22T03:42:42;11.68;;;6.07;;
66751;SDS011;53663;42.676;23.238;2024-03-22T03:45:07;13.05;;;5.88;;
66751;SDS011;53663;42.676;23.238;2024-03-22T03:47:33;15.70;;;5.88;;
66751;SDS011;53663;42.676;23.238;2024-03-22T03:49:59;20.33;;;7.03;;
66751;SDS011;53663;42.676;23.238;2024-03-22T03:52:24;14.77;;;6.65;;
66751;SDS011;53663;42.676;23.238;2024-03-22T03:54:50;15.32;;;7.03;;
66751;SDS011;53663;42.676;23.238;2024-03-22T03:57:15;16.70;;;7.50;;
66751;SDS011;53663;42.676;23.238;2024-03-22T03:59:41;15.77;;;6.75;;
66751;SDS011;53663;42.676;23.238;2024-03-22T04:02:06;20.00;;;7.07;;
66751;SDS011;53663;42.676;23.238;2024-03-22T04:04:32;13.05;;;6.43;;
66751;SDS011;53663;42.676;23.238;2024-03-22T04:06:57;19.95;;;6.70;;
66751;SDS011;53663;42.676;23.238;2024-03-22T04:09:23;14.85;;;6.28;;
66751;SDS011;53663;42.676;23.238;2024-03-22T04:11:49;18.67;;;6.85;;
66751;SDS011;53663;42.676;23.238;2024-03-22T04:14:14;13.18;;;6.25;;
66751;SDS011;53663;42.676;23.238;2024-03-22T04:16:40;17.17;;;7.07;;
66751;SDS011;53663;42.676;23.238;2024-03-22T04:19:05;13.90;;;6.80;;
66751;SDS011;53663;42.676;23.238;2024-03-22T04:21:31;17.65;;;7.38;;
66751;SDS011;53663;42.676;23.238;2024-03-22T04:23:56;17.95;;;8.38;;
66751;SDS011;53663;42.676;23.238;2024-03-22T04:26:22;18.55;;;8.40;;
66751;SDS011;53663;42.676;23.238;2024-03-22T04:28:48;20.35;;;7.53;;
66751;SDS011;53663;42.676;23.238;2024-03-22T04:31:14;17.77;;;6.97;;
66751;SDS011;53663;42.676;23.238;2024-03-22T04:33:40;15.65;;;6.50;;
66751;SDS011;53663;42.676;23.238;2024-03-22T04:36:06;19.45;;;7.85;;
66751;SDS011;53663;42.676;23.238;2024-03-22T04:38:34;18.40;;;7.15;;
66751;SDS011;53663;42.676;23.238;2024-03-22T04:41:00;20.02;;;7.97;;
66751;SDS011;53663;42.676;23.238;2024-03-22T04:43:26;32.65;;;14.02;;
66751;SDS011;53663;42.676;23.238;2024-03-22T04:45:52;26.60;;;11.13;;
66751;SDS011;53663;42.676;23.238;2024-03-22T04:48:18;27.77;;;9.77;;
66751;SDS011;53663;42.676;23.238;2024-03-22T04:50:46;23.30;;;9.23;;
66751;SDS011;53663;42.676;23.238;2024-03-22T04:53:13;18.42;;;8.45;;
66751;SDS011;53663;42.676;23.238;2024-03-22T04:55:39;27.55;;;9.57;;
66751;SDS011;53663;42.676;23.238;2024-03-22T05:00:36;21.73;;;8.25;;
66751;SDS011;53663;42.676;23.238;2024-03-22T05:03:02;24.40;;;8.63;;
66751;SDS011;53663;42.676;23.238;2024-03-22T05:05:27;15.55;;;8.27;;
66751;SDS011;53663;42.676;23.238;2024-03-22T05:07:53;19.02;;;8.65;;
66751;SDS011;53663;42.676;23.238;2024-03-22T05:10:19;29.13;;;9.23;;
66751;SDS011;53663;42.676;23.238;2024-03-22T05:12:44;27.75;;;9.82;;
66751;SDS011;53663;42.676;23.238;2024-03-22T05:15:10;23.00;;;8.60;;
66751;SDS011;53663;42.676;23.238;2024-03-22T05:17:35;23.92;;;9.98;;
66751;SDS011;53663;42.676;23.238;2024-03-22T05:20:01;37.60;;;10.55;;
66751;SDS011;53663;42.676;23.238;2024-03-22T05:22:27;35.95;;;10.25;;
66751;SDS011;53663;42.676;23.238;2024-03-22T05:24:53;21.13;;;9.15;;
66751;SDS011;53663;42.676;23.238;2024-03-22T05:27:19;17.05;;;9.35;;
66751;SDS011;53663;42.676;23.238;2024-03-22T05:29:44;17.20;;;8.10;;
66751;SDS011;53663;42.676;23.238;2024-03-22T05:32:10;20.45;;;9.05;;
66751;SDS011;53663;42.676;23.238;2024-03-22T05:34:36;17.85;;;9.60;;
66751;SDS011;53663;42.676;23.238;2024-03-22T05:37:02;21.15;;;9.20;;
66751;SDS011;53663;42.676;23.238;2024-03-22T05:39:27;16.05;;;7.95;;
66751;SDS011;53663;42.676;23.238;2024-03-22T05:41:53;27.45;;;9.43;;
66751;SDS011;53663;42.676;23.238;2024-03-22T05:44:19;23.67;;;10.00;;
66751;SDS011;53663;42.676;23.238;2024-03-22T05:46:46;26.85;;;10.13;;
66751;SDS011;53663;42.676;23.238;2024-03-22T05:49:12;19.90;;;9.30;;
66751;SDS011;53663;42.676;23.238;2024-03-22T05:51:37;17.70;;;9.52;;
66751;SDS011;53663;42.676;23.238;2024-03-22T05:54:03;17.88;;;9.57;;
66751;SDS011;53663;42.676;23.238;2024-03-22T05:56:29;21.63;;;9.75;;
66751;SDS011;53663;42.676;23.238;2024-03-22T05:58:54;20.35;;;9.23;;
66751;SDS011;53663;42.676;23.238;2024-03-22T06:01:20;19.58;;;9.95;;
66751;SDS011;53663;42.676;23.238;2024-03-22T06:03:45;16.00;;;8.60;;
66751;SDS011;53663;42.676;23.238;2024-03-22T06:06:11;14.20;;;8.38;;
66751;SDS011;53663;42.676;23.238;2024-03-22T06:08:37;19.35;;;8.60;;
66751;SDS011;53663;42.676;23.238;2024-03-22T06:11:06;17.08;;;8.70;;
66751;SDS011;53663;42.676;23.238;2024-03-22T06:13:32;19.83;;;9.30;;
66751;SDS011;53663;42.676;23.238;2024-03-22T06:15:58;26.13;;;9.60;;
66751;SDS011;53663;42.676;23.238;2024-03-22T06:18:24;20.70;;;9.57;;
66751;SDS011;53663;42.676;23.238;2024-03-22T06:20:50;19.77;;;8.85;;
66751;SDS011;53663;42.676;23.238;2024-03-22T06:23:15;21.40;;;9.00;;
66751;SDS011;53663;42.676;23.238;2024-03-22T06:25:41;21.63;;;8.95;;
66751;SDS011;53663;42.676;23.238;2024-03-22T06:28:06;14.02;;;8.60;;
66751;SDS011;53663;42.676;23.238;2024-03-22T06:30:32;22.90;;;10.30;;
66751;SDS011;53663;42.676;23.238;2024-03-22T06:32:57;27.95;;;12.05;;
66751;SDS011;53663;42.676;23.238;2024-03-22T06:35:23;27.92;;;11.13;;
66751;SDS011;53663;42.676;23.238;2024-03-22T06:37:48;18.13;;;9.90;;
66751;SDS011;53663;42.676;23.238;2024-03-22T06:40:14;26.77;;;11.57;;
66751;SDS011;53663;42.676;23.238;2024-03-22T06:42:40;15.80;;;8.77;;
66751;SDS011;53663;42.676;23.238;2024-03-22T06:45:06;18.20;;;9.25;;
66751;SDS011;53663;42.676;23.238;2024-03-22T06:47:32;19.65;;;9.65;;
66751;SDS011;53663;42.676;23.238;2024-03-22T06:49:57;22.30;;;9.18;;
66751;SDS011;53663;42.676;23.238;2024-03-22T06:52:23;19.30;;;10.30;;
66751;SDS011;53663;42.676;23.238;2024-03-22T06:54:49;21.58;;;9.52;;
66751;SDS011;53663;42.676;23.238;2024-03-22T06:57:14;23.50;;;9.75;;
66751;SDS011;53663;42.676;23.238;2024-03-22T06:59:40;18.52;;;9.70;;
66751;SDS011;53663;42.676;23.238;2024-03-22T07:02:05;16.73;;;8.68;;
66751;SDS011;53663;42.676;23.238;2024-03-22T07:04:31;19.73;;;9.70;;
66751;SDS011;53663;42.676;23.238;2024-03-22T07:06:57;19.90;;;9.82;;
66751;SDS011;53663;42.676;23.238;2024-03-22T07:09:22;18.17;;;9.30;;
66751;SDS011;53663;42.676;23.238;2024-03-22T07:11:48;18.05;;;9.75;;
66751;SDS011;53663;42.676;23.238;2024-03-22T07:14:13;27.05;;;10.15;;
66751;SDS011;53663;42.676;23.238;2024-03-22T07:16:39;22.52;;;10.32;;
66751;SDS011;53663;42.676;23.238;2024-03-22T07:19:04;20.88;;;9.90;;
66751;SDS011;53663;42.676;23.238;2024-03-22T07:21:31;22.13;;;10.30;;
66751;SDS011;53663;42.676;23.238;2024-03-22T07:23:56;20.90;;;9.63;;
66751;SDS011;53663;42.676;23.238;2024-03-22T07:26:22;21.25;;;10.52;;
66751;SDS011;53663;42.676;23.238;2024-03-22T07:28:47;29.73;;;12.40;;
66751;SDS011;53663;42.676;23.238;2024-03-22T07:31:13;27.20;;;12.05;;
66751;SDS011;53663;42.676;23.238;2024-03-22T07:33:39;20.98;;;8.80;;
66751;SDS011;53663;42.676;23.238;2024-03-22T07:36:05;19.10;;;9.18;;
66751;SDS011;53663;42.676;23.238;2024-03-22T07:38:31;20.48;;;9.15;;
66751;SDS011;53663;42.676;23.238;2024-03-22T07:40:56;17.85;;;10.23;;
66751;SDS011;53663;42.676;23.238;2024-03-22T07:43:22;17.83;;;10.65;;
66751;SDS011;53663;42.676;23.238;2024-03-22T07:45:48;19.13;;;10.73;;
66751;SDS011;53663;42.676;23.238;2024-03-22T07:48:13;12.82;;;9.77;;
66751;SDS011;53663;42.676;23.238;2024-03-22T07:50:39;29.05;;;11.50;;
66751;SDS011;53663;42.676;23.238;2024-03-22T07:53:04;17.58;;;10.88;;
66751;SDS011;53663;42.676;23.238;2024-03-22T07:55:30;18.98;;;8.65;;
66751;SDS011;53663;42.676;23.238;2024-03-22T07:57:56;17.25;;;8.38;;
66751;SDS011;53663;42.676;23.238;2024-03-22T08:00:23;17.50;;;8.20;;
66751;SDS011;53663;42.676;23.238;2024-03-22T08:02:50;15.40;;;8.02;;
66751;SDS011;53663;42.676;23.238;2024-03-22T08:05:16;24.33;;;8.82;;
66751;SDS011;53663;42.676;23.238;2024-03-22T08:07:42;19.80;;;7.22;;
66751;SDS011;53663;42.676;23.238;2024-03-22T08:10:09;16.23;;;7.22;;
66751;SDS011;53663;42.676;23.238;2024-03-22T08:12:35;20.10;;;7.78;;
66751;SDS011;53663;42.676;23.238;2024-03-22T08:15:00;16.70;;;8.38;;
66751;SDS011;53663;42.676;23.238;2024-03-22T08:17:26;12.95;;;7.40;;
66751;SDS011;53663;42.676;23.238;2024-03-22T08:19:52;17.50;;;7.07;;
66751;SDS011;53663;42.676;23.238;2024-03-22T08:22:18;13.02;;;8.02;;
66751;SDS011;53663;42.676;23.238;2024-03-22T08:24:43;15.80;;;8.43;;
66751;SDS011;53663;42.676;23.238;2024-03-22T08:27:09;26.63;;;16.13;;
66751;SDS011;53663;42.676;23.238;2024-03-22T08:29:34;39.25;;;25.65;;
66751;SDS011;53663;42.676;23.238;2024-03-22T08:32:00;16.75;;;10.93;;
66751;SDS011;53663;42.676;23.238;2024-03-22T08:34:29;19.55;;;11.40;;
66751;SDS011;53663;42.676;23.238;2024-03-22T08:36:58;12.82;;;8.27;;
66751;SDS011;53663;42.676;23.238;2024-03-22T08:39:23;15.50;;;11.13;;
66751;SDS011;53663;42.676;23.238;2024-03-22T08:41:49;19.98;;;14.18;;
66751;SDS011;53663;42.676;23.238;2024-03-22T08:44:16;10.25;;;5.43;;
66751;SDS011;53663;42.676;23.238;2024-03-22T08:46:42;6.80;;;4.85;;
66751;SDS011;53663;42.676;23.238;2024-03-22T08:49:07;10.05;;;5.60;;
66751;SDS011;53663;42.676;23.238;2024-03-22T08:51:33;9.68;;;4.95;;
66751;SDS011;53663;42.676;23.238;2024-03-22T08:53:59;8.95;;;4.80;;
66751;SDS011;53663;42.676;23.238;2024-03-22T08:56:26;11.52;;;5.32;;
66751;SDS011;53663;42.676;23.238;2024-03-22T08:58:51;5.88;;;3.90;;
66751;SDS011;53663;42.676;23.238;2024-03-22T09:01:17;8.00;;;4.03;;
66751;SDS011;53663;42.676;23.238;2024-03-22T09:03:42;5.43;;;3.55;;
66751;SDS011;53663;42.676;23.238;2024-03-22T09:06:11;8.05;;;4.30;;
66751;SDS011;53663;42.676;23.238;2024-03-22T09:08:37;5.82;;;3.95;;
66751;SDS011;53663;42.676;23.238;2024-03-22T09:11:03;7.55;;;3.72;;
66751;SDS011;53663;42.676;23.238;2024-03-22T09:13:28;6.43;;;3.92;;
66751;SDS011;53663;42.676;23.238;2024-03-22T09:16:00;6.93;;;4.30;;
66751;SDS011;53663;42.676;23.238;2024-03-22T09:18:27;9.88;;;6.07;;
66751;SDS011;53663;42.676;23.238;2024-03-22T09:20:53;7.93;;;3.45;;
66751;SDS011;53663;42.676;23.238;2024-03-22T09:23:19;5.97;;;3.38;;
66751;SDS011;53663;42.676;23.238;2024-03-22T09:25:45;9.93;;;4.15;;
66751;SDS011;53663;42.676;23.238;2024-03-22T09:28:12;10.05;;;4.57;;
66751;SDS011;53663;42.676;23.238;2024-03-22T09:30:41;6.80;;;4.15;;
66751;SDS011;53663;42.676;23.238;2024-03-22T09:33:08;6.82;;;3.90;;
66751;SDS011;53663;42.676;23.238;2024-03-22T09:35:34;5.03;;;3.42;;
66751;SDS011;53663;42.676;23.238;2024-03-22T09:38:00;7.40;;;3.45;;
66751;SDS011;53663;42.676;23.238;2024-03-22T09:40:27;10.50;;;3.15;;
66751;SDS011;53663;42.676;23.238;2024-03-22T09:42:53;5.63;;;3.50;;
66751;SDS011;53663;42.676;23.238;2024-03-22T09:45:19;9.23;;;4.07;;
66751;SDS011;53663;42.676;23.238;2024-03-22T09:47:45;6.00;;;3.65;;
66751;SDS011;53663;42.676;23.238;2024-03-22T09:50:13;5.68;;;3.40;;
66751;SDS011;53663;42.676;23.238;2024-03-22T09:52:39;5.45;;;3.35;;
66751;SDS011;53663;42.676;23.238;2024-03-22T09:55:07;9.45;;;4.07;;
66751;SDS011;53663;42.676;23.238;2024-03-22T09:57:38;10.73;;;5.82;;
66751;SDS011;53663;42.676;23.238;2024-03-22T10:00:07;15.13;;;4.03;;
66751;SDS011;53663;42.676;23.238;2024-03-22T10:02:39;6.68;;;3.63;;
66751;SDS011;53663;42.676;23.238;2024-03-22T10:05:05;6.45;;;3.35;;
66751;SDS011;53663;42.676;23.238;2024-03-22T10:07:31;7.18;;;3.70;;
66751;SDS011;53663;42.676;23.238;2024-03-22T10:10:00;12.98;;;5.90;;
66751;SDS011;53663;42.676;23.238;2024-03-22T10:12:27;7.25;;;3.85;;
66751;SDS011;53663;42.676;23.238;2024-03-22T10:14:52;4.78;;;3.30;;
66751;SDS011;53663;42.676;23.238;2024-03-22T10:17:18;5.47;;;3.67;;
66751;SDS011;53663;42.676;23.238;2024-03-22T10:19:44;8.88;;;3.30;;
66751;SDS011;53663;42.676;23.238;2024-03-22T10:22:09;6.15;;;3.15;;
66751;SDS011;53663;42.676;23.238;2024-03-22T10:24:35;6.85;;;3.60;;
66751;SDS011;53663;42.676;23.238;2024-03-22T10:27:01;7.07;;;3.78;;
66751;SDS011;53663;42.676;23.238;2024-03-22T10:29:26;6.38;;;3.47;;
66751;SDS011;53663;42.676;23.238;2024-03-22T10:31:53;5.32;;;3.40;;
66751;SDS011;53663;42.676;23.238;2024-03-22T10:34:24;5.90;;;3.40;;
66751;SDS011;53663;42.676;23.238;2024-03-22T10:36:50;5.70;;;3.50;;
66751;SDS011;53663;42.676;23.238;2024-03-22T10:39:19;6.43;;;3.60;;
66751;SDS011;53663;42.676;23.238;2024-03-22T10:41:48;6.50;;;3.80;;
66751;SDS011;53663;42.676;23.238;2024-03-22T10:44:14;4.90;;;3.20;;
66751;SDS011;53663;42.676;23.238;2024-03-22T10:46:44;6.15;;;3.15;;
66751;SDS011;53663;42.676;23.238;2024-03-22T10:49:12;5.47;;;3.30;;
66751;SDS011;53663;42.676;23.238;2024-03-22T10:51:41;9.25;;;3.65;;
66751;SDS011;53663;42.676;23.238;2024-03-22T10:54:12;4.95;;;2.92;;
66751;SDS011;53663;42.676;23.238;2024-03-22T10:56:43;8.00;;;4.03;;
66751;SDS011;53663;42.676;23.238;2024-03-22T10:59:12;10.48;;;4.30;;
66751;SDS011;53663;42.676;23.238;2024-03-22T11:01:45;5.88;;;3.38;;
66751;SDS011;53663;42.676;23.238;2024-03-22T11:04:11;5.28;;;3.70;;
66751;SDS011;53663;42.676;23.238;2024-03-22T11:06:37;8.60;;;3.40;;
66751;SDS011;53663;42.676;23.238;2024-03-22T11:09:03;4.90;;;3.28;;
66751;SDS011;53663;42.676;23.238;2024-03-22T11:11:35;7.13;;;3.50;;
66751;SDS011;53663;42.676;23.238;2024-03-22T11:14:04;9.00;;;4.20;;
66751;SDS011;53663;42.676;23.238;2024-03-22T11:16:29;6.28;;;4.07;;
66751;SDS011;53663;42.676;23.238;2024-03-22T11:18:55;9.10;;;3.78;;
66751;SDS011;53663;42.676;23.238;2024-03-22T11:21:21;8.27;;;3.10;;
66751;SDS011;53663;42.676;23.238;2024-03-22T11:23:46;4.43;;;3.10;;
66751;SDS011;53663;42.676;23.238;2024-03-22T11:26:12;5.22;;;3.17;;
66751;SDS011;53663;42.676;23.238;2024-03-22T11:28:38;9.05;;;3.40;;
66751;SDS011;53663;42.676;23.238;2024-03-22T11:31:04;5.72;;;3.38;;
66751;SDS011;53663;42.676;23.238;2024-03-22T11:33:30;9.27;;;2.90;;
66751;SDS011;53663;42.676;23.238;2024-03-22T11:36:00;10.23;;;3.40;;
66751;SDS011;53663;42.676;23.238;2024-03-22T11:38:26;6.47;;;3.40;;
66751;SDS011;53663;42.676;23.238;2024-03-22T11:40:52;8.80;;;3.28;;
66751;SDS011;53663;42.676;23.238;2024-03-22T11:43:19;6.32;;;3.22;;
66751;SDS011;53663;42.676;23.238;2024-03-22T11:45:45;7.32;;;3.55;;
66751;SDS011;53663;42.676;23.238;2024-03-22T11:48:11;7.45;;;3.35;;
66751;SDS011;53663;42.676;23.238;2024-03-22T11:50:39;8.57;;;3.30;;
66751;SDS011;53663;42.676;23.238;2024-03-22T11:53:05;7.13;;;3.38;;
66751;SDS011;53663;42.676;23.238;2024-03-22T11:55:32;6.85;;;3.30;;
66751;SDS011;53663;42.676;23.238;2024-03-22T11:58:00;4.63;;;2.97;;
66751;SDS011;53663;42.676;23.238;2024-03-22T12:00:26;6.20;;;3.25;;
66751;SDS011;53663;42.676;23.238;2024-03-22T12:02:53;7.80;;;3.78;;
66751;SDS011;53663;42.676;23.238;2024-03-22T12:05:18;7.13;;;3.33;;
66751;SDS011;53663;42.676;23.238;2024-03-22T12:07:45;5.72;;;2.78;;
66751;SDS011;53663;42.676;23.238;2024-03-22T12:10:11;4.50;;;3.38;;
66751;SDS011;53663;42.676;23.238;2024-03-22T12:12:36;6.43;;;3.20;;
66751;SDS011;53663;42.676;23.238;2024-03-22T12:15:03;6.43;;;3.47;;
66751;SDS011;53663;42.676;23.238;2024-03-22T12:17:29;11.18;;;3.30;;
66751;SDS011;53663;42.676;23.238;2024-03-22T12:19:55;5.65;;;3.15;;
66751;SDS011;53663;42.676;23.238;2024-03-22T12:22:21;5.03;;;2.97;;
66751;SDS011;53663;42.676;23.238;2024-03-22T12:24:47;4.82;;;3.03;;
66751;SDS011;53663;42.676;23.238;2024-03-22T12:27:13;7.82;;;3.08;;
66751;SDS011;53663;42.676;23.238;2024-03-22T12:29:39;5.20;;;3.00;;
66751;SDS011;53663;42.676;23.238;2024-03-22T12:32:04;6.35;;;3.28;;
66751;SDS011;53663;42.676;23.238;2024-03-22T12:34:30;5.05;;;3.08;;
66751;SDS011;53663;42.676;23.238;2024-03-22T12:36:57;15.13;;;6.22;;
66751;SDS011;53663;42.676;23.238;2024-03-22T12:39:23;6.97;;;3.38;;
66751;SDS011;53663;42.676;23.238;2024-03-22T12:41:49;5.00;;;2.83;;
66751;SDS011;53663;42.676;23.238;2024-03-22T12:44:15;6.75;;;3.38;;
66751;SDS011;53663;42.676;23.238;2024-03-22T12:46:40;6.68;;;3.20;;
66751;SDS011;53663;42.676;23.238;2024-03-22T12:49:08;5.30;;;3.10;;
66751;SDS011;53663;42.676;23.238;2024-03-22T12:51:37;7.00;;;2.95;;
66751;SDS011;53663;42.676;23.238;2024-03-22T12:54:03;10.90;;;3.25;;
66751;SDS011;53663;42.676;23.238;2024-03-22T12:56:30;4.60;;;3.17;;
66751;SDS011;53663;42.676;23.238;2024-03-22T12:58:56;6.65;;;3.00;;
66751;SDS011;53663;42.676;23.238;2024-03-22T13:01:21;4.85;;;2.88;;
66751;SDS011;53663;42.676;23.238;2024-03-22T13:03:47;7.03;;;3.13;;
66751;SDS011;53663;42.676;23.238;2024-03-22T13:06:13;4.78;;;3.33;;
66751;SDS011;53663;42.676;23.238;2024-03-22T13:08:38;5.65;;;3.30;;
66751;SDS011;53663;42.676;23.238;2024-03-22T13:11:04;8.15;;;2.97;;
66751;SDS011;53663;42.676;23.238;2024-03-22T13:13:30;5.97;;;3.50;;
66751;SDS011;53663;42.676;23.238;2024-03-22T13:15:58;5.95;;;3.00;;
66751;SDS011;53663;42.676;23.238;2024-03-22T13:18:24;7.05;;;2.97;;
66751;SDS011;53663;42.676;23.238;2024-03-22T13:20:49;7.07;;;3.25;;
66751;SDS011;53663;42.676;23.238;2024-03-22T13:23:15;5.57;;;3.13;;
66751;SDS011;53663;42.676;23.238;2024-03-22T13:25:40;5.97;;;3.20;;
66751;SDS011;53663;42.676;23.238;2024-03-22T13:28:06;8.45;;;3.17;;
66751;SDS011;53663;42.676;23.238;2024-03-22T13:30:32;6.78;;;3.15;;
66751;SDS011;53663;42.676;23.238;2024-03-22T13:32:57;7.00;;;3.17;;
66751;SDS011;53663;42.676;23.238;2024-03-22T13:35:24;5.60;;;3.38;;
66751;SDS011;53663;42.676;23.238;2024-03-22T13:37:50;5.70;;;3.10;;
66751;SDS011;53663;42.676;23.238;2024-03-22T13:40:15;5.03;;;3.33;;
66751;SDS011;53663;42.676;23.238;2024-03-22T13:42:42;5.80;;;3.33;;
66751;SDS011;53663;42.676;23.238;2024-03-22T13:45:08;4.53;;;3.10;;
66751;SDS011;53663;42.676;23.238;2024-03-22T13:47:33;5.57;;;3.20;;
66751;SDS011;53663;42.676;23.238;2024-03-22T13:50:00;6.57;;;3.22;;
66751;SDS011;53663;42.676;23.238;2024-03-22T13:52:27;5.25;;;3.05;;
66751;SDS011;53663;42.676;23.238;2024-03-22T13:54:52;14.75;;;6.82;;
66751;SDS011;53663;42.676;23.238;2024-03-22T13:57:18;5.93;;;2.92;;
66751;SDS011;53663;42.676;23.238;2024-03-22T13:59:43;7.82;;;3.83;;
66751;SDS011;53663;42.676;23.238;2024-03-22T14:02:09;7.05;;;3.17;;
66751;SDS011;53663;42.676;23.238;2024-03-22T14:04:35;7.03;;;2.90;;
66751;SDS011;53663;42.676;23.238;2024-03-22T14:07:01;6.97;;;3.30;;
66751;SDS011;53663;42.676;23.238;2024-03-22T14:09:33;9.73;;;6.15;;
66751;SDS011;53663;42.676;23.238;2024-03-22T14:11:59;11.02;;;5.10;;
66751;SDS011;53663;42.676;23.238;2024-03-22T14:14:25;6.25;;;3.13;;
66751;SDS011;53663;42.676;23.238;2024-03-22T14:16:54;5.35;;;3.13;;
66751;SDS011;53663;42.676;23.238;2024-03-22T14:19:20;8.13;;;3.30;;
66751;SDS011;53663;42.676;23.238;2024-03-22T14:21:46;6.43;;;3.30;;